Time;durP1;ratioP1;P1;durP2;ratioP2;P2;SDS_P1;SDS_P2;PMS_P1;PMS_P2;Temp;Humidity;BMP_temperature;BMP_pressure;BME280_temperature;BME280_humidity;BME280_pressure;Samples;Min_cycle;Max_cycle;Signal;HPM_P1;HPM_P2
2021/04/02 00:00:46;;;;;;;2.00;0.80;;;9.50;99.90;;;;;;5028566;28;20204;-86
2021/04/02 00:03:14;;;;;;;0.90;0.80;;;9.40;99.90;;;;;;5030816;28;20189;-84
2021/04/02 00:05:41;;;;;;;1.30;0.80;;;9.40;99.90;;;;;;5030240;28;20209;-85
2021/04/02 00:08:07;;;;;;;1.07;0.60;;;9.30;99.90;;;;;;5030214;28;20228;-87
2021/04/02 00:10:40;;;;;;;0.87;0.80;;;9.40;99.90;;;;;;5030950;28;20220;-87
2021/04/02 00:13:06;;;;;;;1.07;0.70;;;9.40;99.90;;;;;;5030552;28;20198;-88
2021/04/02 00:15:32;;;;;;;0.83;0.70;;;9.30;99.90;;;;;;5030503;28;20287;-86
2021/04/02 00:17:58;;;;;;;1.97;0.60;;;9.30;99.90;;;;;;5030546;28;20247;-87
2021/04/02 00:20:24;;;;;;;1.07;0.60;;;9.30;99.90;;;;;;5030685;28;20253;-86
2021/04/02 00:22:51;;;;;;;0.97;0.50;;;9.20;99.90;;;;;;5030253;28;20281;-86
2021/04/02 00:25:17;;;;;;;1.13;0.60;;;9.30;99.90;;;;;;5030460;28;20248;-85
2021/04/02 00:27:44;;;;;;;0.90;0.90;;;9.20;99.90;;;;;;5030506;28;20216;-86
2021/04/02 00:30:13;;;;;;;1.07;0.90;;;9.20;99.90;;;;;;5030434;28;20208;-86
2021/04/02 00:32:40;;;;;;;0.80;0.80;;;9.20;99.90;;;;;;5030214;28;20706;-86
2021/04/02 00:35:07;;;;;;;1.03;0.80;;;9.20;99.90;;;;;;5030203;28;20233;-87
2021/04/02 00:37:33;;;;;;;0.83;0.83;;;9.10;99.90;;;;;;5030426;28;20230;-87
2021/04/02 00:40:00;;;;;;;0.90;0.90;;;9.00;99.90;;;;;;5030628;28;20263;-86
2021/04/02 00:42:27;;;;;;;2.37;1.17;;;8.90;99.90;;;;;;5030423;28;20209;-86
2021/04/02 00:44:53;;;;;;;1.97;1.20;;;8.90;99.90;;;;;;5030502;28;20205;-86
2021/04/02 00:47:19;;;;;;;1.20;0.90;;;8.90;99.90;;;;;;5030463;28;20243;-87
2021/04/02 00:49:45;;;;;;;1.27;1.10;;;8.90;99.90;;;;;;5030129;28;20205;-86
2021/04/02 00:52:11;;;;;;;2.20;1.13;;;8.90;99.90;;;;;;5030423;28;20205;-89
2021/04/02 00:54:37;;;;;;;1.30;1.10;;;8.80;99.90;;;;;;5030494;28;20237;-90
2021/04/02 00:57:05;;;;;;;2.50;1.47;;;8.80;99.90;;;;;;5030681;28;20232;-89
2021/04/02 00:59:31;;;;;;;1.77;1.03;;;8.80;99.90;;;;;;5030642;28;20236;-91
2021/04/02 01:01:58;;;;;;;1.30;1.20;;;8.70;99.90;;;;;;5030502;28;20586;-90
2021/04/02 01:04:24;;;;;;;1.43;1.00;;;8.60;99.90;;;;;;5030307;28;20690;-89
2021/04/02 01:06:50;;;;;;;2.07;1.50;;;8.60;99.90;;;;;;5030454;28;20212;-91
2021/04/02 01:09:16;;;;;;;1.23;1.13;;;8.70;99.90;;;;;;5029561;28;20244;-84
2021/04/02 01:11:42;;;;;;;1.40;1.00;;;8.60;99.90;;;;;;5028898;28;20216;-86
2021/04/02 01:14:09;;;;;;;1.10;1.10;;;8.60;99.90;;;;;;5029091;28;20309;-84
2021/04/02 01:16:36;;;;;;;2.50;1.20;;;8.60;99.90;;;;;;5029217;28;20205;-85
2021/04/02 01:19:08;;;;;;;3.07;1.37;;;8.60;99.90;;;;;;5029530;28;20212;-86
2021/04/02 01:21:38;;;;;;;2.60;1.03;;;8.60;99.90;;;;;;5029597;28;20231;-86
2021/04/02 01:24:19;;;;;;;1.20;1.10;;;8.50;99.90;;;;;;5028296;28;20667;-83
2021/04/02 01:27:09;;;;;;;2.10;1.47;;;8.50;99.90;;;;;;5028328;28;20201;-84
2021/04/02 01:29:44;;;;;;;2.67;1.20;;;8.40;99.90;;;;;;5028314;28;20236;-84
2021/04/02 01:32:14;;;;;;;2.77;1.13;;;8.40;99.90;;;;;;5027949;28;20635;-82
2021/04/02 01:34:44;;;;;;;2.13;1.23;;;8.30;99.90;;;;;;5028368;28;20245;-84
2021/04/02 01:37:16;;;;;;;1.80;1.10;;;8.40;99.90;;;;;;5028105;28;20212;-85
2021/04/02 01:39:45;;;;;;;1.63;1.50;;;8.30;99.90;;;;;;5028030;28;20305;-86
2021/04/02 01:42:17;;;;;;;2.70;1.60;;;8.30;99.90;;;;;;5027558;28;20240;-78
2021/04/02 01:44:45;;;;;;;1.37;1.27;;;8.30;99.90;;;;;;5026907;28;20283;-79
2021/04/02 01:47:12;;;;;;;1.33;1.13;;;8.30;99.90;;;;;;5027055;28;20208;-79
2021/04/02 01:49:38;;;;;;;1.60;1.23;;;8.30;99.90;;;;;;5027251;28;20248;-78
2021/04/02 01:52:07;;;;;;;2.37;1.30;;;8.20;99.90;;;;;;5026916;28;20281;-79
2021/04/02 01:54:33;;;;;;;1.50;1.40;;;8.20;99.90;;;;;;5026516;28;20233;-78
2021/04/02 01:57:00;;;;;;;1.70;1.40;;;8.10;99.90;;;;;;5026839;28;20258;-78
2021/04/02 01:59:27;;;;;;;1.97;1.30;;;8.10;99.90;;;;;;5026734;28;20614;-78
2021/04/02 02:01:57;;;;;;;1.67;1.40;;;8.00;99.90;;;;;;5026823;28;20241;-79
2021/04/02 02:04:23;;;;;;;3.33;1.50;;;8.00;99.90;;;;;;5026933;28;20220;-78
2021/04/02 02:06:52;;;;;;;1.60;1.50;;;8.00;99.90;;;;;;5026879;28;20236;-78
2021/04/02 02:09:23;;;;;;;1.87;1.47;;;8.00;99.90;;;;;;5027820;28;20251;-85
2021/04/02 02:11:55;;;;;;;2.23;1.83;;;8.00;99.90;;;;;;5028973;28;20216;-84
2021/04/02 02:14:24;;;;;;;2.07;1.50;;;8.00;99.90;;;;;;5028349;28;20245;-85
2021/04/02 02:16:55;;;;;;;2.07;1.83;;;7.90;99.90;;;;;;5028564;28;20240;-85
2021/04/02 02:19:25;;;;;;;3.20;1.93;;;7.80;99.90;;;;;;5028676;28;20599;-85
2021/04/02 02:21:53;;;;;;;2.23;1.73;;;7.80;99.90;;;;;;5028546;28;20213;-84
2021/04/02 02:24:19;;;;;;;2.53;1.80;;;7.80;99.90;;;;;;5027627;28;20622;-85
2021/04/02 02:26:46;;;;;;;1.70;1.60;;;7.70;99.90;;;;;;5028306;28;20689;-85
2021/04/02 02:29:13;;;;;;;3.10;2.00;;;7.70;99.90;;;;;;5028556;28;20209;-84
2021/04/02 02:31:40;;;;;;;2.10;1.90;;;7.60;99.90;;;;;;5028357;28;20237;-86
2021/04/02 02:34:08;;;;;;;2.00;1.73;;;7.60;99.90;;;;;;5028559;28;20267;-85
2021/04/02 02:36:35;;;;;;;4.00;2.07;;;7.50;99.90;;;;;;5028367;28;20240;-85
2021/04/02 02:39:07;;;;;;;2.73;1.87;;;7.50;99.90;;;;;;5028356;28;20220;-85
2021/04/02 02:41:34;;;;;;;2.73;1.83;;;7.50;99.90;;;;;;5028156;28;20197;-84
2021/04/02 02:44:00;;;;;;;2.00;1.90;;;7.50;99.90;;;;;;5028117;28;20244;-85
2021/04/02 02:46:27;;;;;;;2.03;1.50;;;7.50;99.90;;;;;;5027877;28;20232;-85
2021/04/02 02:48:57;;;;;;;1.97;1.87;;;7.50;99.90;;;;;;5028020;28;20215;-85
2021/04/02 02:51:28;;;;;;;2.10;2.00;;;7.40;99.90;;;;;;5028394;28;20193;-85
2021/04/02 02:53:58;;;;;;;2.97;1.90;;;7.40;99.90;;;;;;5028081;28;20927;-85
2021/04/02 02:56:25;;;;;;;1.90;1.77;;;7.40;99.90;;;;;;5028323;28;20205;-85
2021/04/02 02:58:53;;;;;;;2.97;1.90;;;7.40;99.90;;;;;;5027737;28;20681;-83
2021/04/02 03:01:20;;;;;;;1.87;1.77;;;7.40;99.90;;;;;;5027289;28;20595;-84
2021/04/02 03:03:47;;;;;;;1.80;1.70;;;7.40;99.90;;;;;;5027307;28;20204;-83
2021/04/02 03:06:13;;;;;;;3.17;2.20;;;7.40;99.90;;;;;;5027469;28;20232;-83
2021/04/02 03:08:45;;;;;;;2.50;2.10;;;7.40;99.90;;;;;;5027016;28;20237;-84
2021/04/02 03:11:12;;;;;;;3.87;1.90;;;7.30;99.90;;;;;;5027205;28;20189;-83
2021/04/02 03:13:41;;;;;;;2.00;1.90;;;7.30;99.90;;;;;;5027234;28;20241;-86
2021/04/02 03:16:09;;;;;;;2.00;1.80;;;7.30;99.90;;;;;;5027932;28;20237;-89
2021/04/02 03:18:37;;;;;;;1.93;1.80;;;7.20;99.90;;;;;;5027635;28;20209;-84
2021/04/02 03:21:05;;;;;;;2.10;2.00;;;7.20;99.90;;;;;;5027567;28;20220;-84
2021/04/02 03:23:31;;;;;;;2.30;2.10;;;7.20;99.90;;;;;;5027682;28;20208;-87
2021/04/02 03:26:00;;;;;;;2.57;1.80;;;7.00;99.90;;;;;;5028183;28;20216;-86
2021/04/02 03:28:26;;;;;;;4.63;2.10;;;7.00;99.90;;;;;;5028185;28;20236;-86
2021/04/02 03:30:52;;;;;;;3.07;2.13;;;7.00;99.90;;;;;;5028335;28;20216;-90
2021/04/02 03:33:22;;;;;;;2.10;2.00;;;7.00;99.90;;;;;;5028125;28;20219;-88
2021/04/02 03:35:50;;;;;;;3.30;1.83;;;7.00;99.90;;;;;;5029210;28;20263;-86
2021/04/02 03:38:18;;;;;;;2.03;1.80;;;7.00;99.90;;;;;;5031300;28;20655;-81
2021/04/02 03:40:45;;;;;;;3.20;2.20;;;7.00;99.90;;;;;;5029001;28;20232;-81
2021/04/02 03:43:13;;;;;;;2.90;2.07;;;7.00;99.90;;;;;;5029353;28;20240;-82
2021/04/02 03:45:42;;;;;;;2.00;1.90;;;7.00;99.90;;;;;;5028938;28;20631;-82
2021/04/02 03:48:11;;;;;;;2.20;1.87;;;6.90;99.90;;;;;;5030284;28;20297;-84
2021/04/02 03:50:41;;;;;;;2.30;2.10;;;6.90;99.90;;;;;;5030360;28;20262;-83
2021/04/02 03:53:10;;;;;;;2.43;2.10;;;6.90;99.90;;;;;;5030598;28;20517;-92
2021/04/02 03:55:40;;;;;;;2.57;1.93;;;6.80;99.90;;;;;;5031771;28;20225;-92
2021/04/02 03:58:07;;;;;;;3.07;1.93;;;6.80;99.90;;;;;;5032505;28;20209;-94
2021/04/02 04:00:39;;;;;;;2.53;2.30;;;6.80;99.90;;;;;;5031055;28;20205;-86
2021/04/02 04:03:06;;;;;;;2.30;2.00;;;6.80;99.90;;;;;;5031184;28;20197;-86
2021/04/02 04:05:33;;;;;;;2.20;2.00;;;6.80;99.90;;;;;;5030487;28;20205;-84
2021/04/02 04:08:00;;;;;;;1.83;1.73;;;6.80;99.90;;;;;;5030423;28;20731;-85
2021/04/02 04:10:27;;;;;;;2.00;1.90;;;6.70;99.90;;;;;;5030603;28;20568;-83
2021/04/02 04:12:58;;;;;;;2.10;1.90;;;6.70;99.90;;;;;;5029927;28;20659;-84
2021/04/02 04:15:26;;;;;;;2.50;2.30;;;6.70;99.90;;;;;;5094021;28;20264;-85
2021/04/02 04:17:54;;;;;;;2.17;2.07;;;6.70;99.90;;;;;;5093714;28;20210;-85
2021/04/02 04:20:22;;;;;;;2.40;2.20;;;6.60;99.90;;;;;;5093630;28;20203;-83
2021/04/02 04:22:49;;;;;;;2.77;2.30;;;6.70;99.90;;;;;;5093383;28;20246;-84
2021/04/02 04:25:20;;;;;;;2.20;2.00;;;6.70;99.90;;;;;;5093595;28;20218;-85
2021/04/02 04:27:46;;;;;;;2.43;2.23;;;6.70;99.90;;;;;;5093380;28;20226;-85
2021/04/02 04:30:15;;;;;;;3.03;2.23;;;6.60;99.90;;;;;;5093356;28;20684;-84
2021/04/02 04:32:41;;;;;;;3.00;2.50;;;6.60;99.90;;;;;;5093345;28;20256;-84
2021/04/02 04:35:12;;;;;;;2.87;2.60;;;6.60;99.90;;;;;;5093408;28;20230;-84
2021/04/02 04:37:39;;;;;;;4.03;2.47;;;6.60;99.90;;;;;;5092914;28;20660;-84
2021/04/02 04:40:08;;;;;;;2.37;2.20;;;6.60;99.90;;;;;;5093266;28;20223;-85
2021/04/02 04:42:36;;;;;;;2.40;2.30;;;6.60;99.90;;;;;;5093472;28;20210;-90
2021/04/02 04:45:04;;;;;;;4.33;2.80;;;6.60;99.90;;;;;;5094523;28;20203;-90
2021/04/02 04:47:30;;;;;;;2.80;2.60;;;6.60;99.90;;;;;;5093629;28;20234;-88
2021/04/02 04:49:57;;;;;;;3.23;2.93;;;6.50;99.90;;;;;;5093841;28;20207;-88
2021/04/02 04:52:27;;;;;;;2.60;2.40;;;6.60;99.90;;;;;;5094266;28;20207;-88
2021/04/02 04:54:54;;;;;;;3.13;2.83;;;6.60;99.90;;;;;;5093932;28;20229;-89
2021/04/02 04:57:23;;;;;;;4.27;3.43;;;6.50;99.90;;;;;;5093181;28;20291;-86
2021/04/02 04:59:51;;;;;;;2.80;2.60;;;6.40;99.90;;;;;;5092715;28;20576;-84
2021/04/02 05:02:18;;;;;;;3.33;3.03;;;6.30;99.90;;;;;;5092638;28;20206;-84
2021/04/02 05:04:45;;;;;;;4.67;3.40;;;6.20;99.90;;;;;;5093361;28;20202;-89
2021/04/02 05:07:13;;;;;;;3.37;3.10;;;6.30;99.90;;;;;;5093874;28;20206;-89
2021/04/02 05:09:42;;;;;;;5.30;3.60;;;6.30;99.90;;;;;;5093544;28;20203;-89
2021/04/02 05:12:11;;;;;;;3.63;3.10;;;6.40;99.90;;;;;;5093809;28;20670;-90
2021/04/02 05:14:42;;;;;;;3.73;3.23;;;6.50;99.90;;;;;;5049847;28;20244;-86
2021/04/02 05:17:10;;;;;;;4.47;3.43;;;6.50;99.90;;;;;;5030357;28;20678;-86
2021/04/02 05:19:37;;;;;;;3.47;3.07;;;6.60;99.90;;;;;;5030283;28;20236;-90
2021/04/02 05:22:03;;;;;;;4.47;4.07;;;6.60;99.90;;;;;;5030410;28;20209;-86
2021/04/02 05:24:31;;;;;;;4.50;3.80;;;6.70;99.90;;;;;;5029797;28;20261;-87
2021/04/02 05:26:58;;;;;;;3.93;3.53;;;6.60;99.90;;;;;;5029915;28;20716;-86
2021/04/02 05:29:24;;;;;;;4.80;4.40;;;6.60;99.90;;;;;;5030032;28;20215;-92
2021/04/02 05:31:50;;;;;;;6.13;4.87;;;6.60;99.90;;;;;;5030493;28;20247;-91
2021/04/02 05:34:16;;;;;;;4.63;4.23;;;6.50;99.90;;;;;;5030460;28;20578;-88
2021/04/02 05:36:42;;;;;;;4.70;4.07;;;6.50;99.90;;;;;;5029999;28;20212;-92
2021/04/02 05:39:08;;;;;;;5.77;4.60;;;6.60;99.90;;;;;;5029805;28;20233;-92
2021/04/02 05:41:44;;;;;;;6.10;4.80;;;6.60;99.90;;;;;;5030221;28;20262;-92
2021/04/02 05:44:14;;;;;;;6.57;4.87;;;6.60;99.90;;;;;;5029972;28;20197;-91
2021/04/02 05:46:43;;;;;;;5.37;4.87;;;6.60;99.90;;;;;;5030003;28;20204;-90
2021/04/02 05:49:11;;;;;;;5.60;5.10;;;6.60;99.90;;;;;;5030085;28;20591;-90
2021/04/02 05:51:38;;;;;;;6.17;5.57;;;6.60;99.90;;;;;;5029476;28;20693;-91
2021/04/02 05:54:07;;;;;;;6.27;5.67;;;6.60;99.90;;;;;;5029693;28;20208;-91
2021/04/02 05:56:33;;;;;;;8.27;5.77;;;6.60;99.90;;;;;;5029210;28;20776;-89
2021/04/02 05:59:00;;;;;;;6.67;5.97;;;6.60;99.90;;;;;;5028851;28;20216;-90
2021/04/02 06:01:27;;;;;;;7.80;5.77;;;6.60;99.90;;;;;;5029491;28;20212;-89
2021/04/02 06:03:54;;;;;;;6.90;5.77;;;6.60;99.90;;;;;;5029412;28;20209;-88
2021/04/02 06:06:21;;;;;;;5.50;5.00;;;6.60;99.90;;;;;;5029591;28;20255;-90
2021/04/02 06:08:47;;;;;;;5.57;5.07;;;6.50;99.90;;;;;;5029328;28;20209;-90
2021/04/02 06:11:14;;;;;;;5.43;4.83;;;6.40;99.90;;;;;;5029512;28;20209;-89
2021/04/02 06:13:41;;;;;;;7.83;5.20;;;6.20;99.90;;;;;;5029224;28;20236;-83
2021/04/02 06:16:07;;;;;;;5.13;4.70;;;6.00;99.90;;;;;;5027943;28;20236;-83
2021/04/02 06:18:38;;;;;;;6.33;5.63;;;6.10;99.90;;;;;;5028066;28;20209;-84
2021/04/02 06:21:04;;;;;;;7.10;5.57;;;6.10;99.90;;;;;;5028050;28;20207;-83
2021/04/02 06:23:33;;;;;;;5.97;5.40;;;6.20;99.90;;;;;;5028045;28;20205;-84
2021/04/02 06:26:02;;;;;;;6.07;5.27;;;6.00;99.90;;;;;;5027535;28;20221;-84
2021/04/02 06:28:30;;;;;;;6.43;5.53;;;6.00;99.90;;;;;;5027339;28;20247;-83
2021/04/02 06:30:59;;;;;;;5.53;5.07;;;5.90;99.90;;;;;;5027262;28;20737;-83
2021/04/02 06:33:37;;;;;;;6.57;5.97;;;6.00;99.90;;;;;;5029258;28;20207;-88
2021/04/02 06:36:12;;;;;;;5.83;5.30;;;5.90;99.90;;;;;;5029211;28;20708;-89
2021/04/02 06:38:42;;;;;;;6.00;5.40;;;6.00;99.90;;;;;;5028310;28;20196;-85
2021/04/02 06:41:08;;;;;;;5.70;5.10;;;6.00;99.90;;;;;;5028341;28;20209;-85
2021/04/02 06:43:39;;;;;;;5.50;5.00;;;6.10;99.90;;;;;;5028629;28;20216;-85
2021/04/02 06:46:07;;;;;;;5.50;5.00;;;6.10;99.90;;;;;;5028366;28;20707;-85
2021/04/02 06:48:33;;;;;;;5.10;4.70;;;6.00;99.90;;;;;;5028313;28;20216;-86
2021/04/02 06:51:00;;;;;;;5.37;4.60;;;6.10;99.90;;;;;;5028067;28;20251;-86
2021/04/02 06:53:27;;;;;;;4.97;4.57;;;6.20;99.90;;;;;;5028300;28;20211;-85
2021/04/02 06:55:54;;;;;;;5.17;4.43;;;6.20;99.90;;;;;;5028139;28;20224;-86
2021/04/02 06:58:22;;;;;;;5.20;4.80;;;6.30;99.90;;;;;;5028463;28;20218;-84
2021/04/02 07:00:50;;;;;;;5.00;4.60;;;6.10;99.90;;;;;;5028319;28;20209;-85
2021/04/02 07:03:18;;;;;;;5.53;5.00;;;6.00;99.90;;;;;;5028519;28;20598;-86
2021/04/02 07:05:45;;;;;;;4.93;4.43;;;6.10;99.90;;;;;;5028262;28;20209;-86
2021/04/02 07:08:16;;;;;;;4.50;4.10;;;6.00;99.90;;;;;;5028070;28;20250;-88
2021/04/02 07:10:42;;;;;;;4.90;4.50;;;6.20;99.90;;;;;;5027606;28;20572;-88
2021/04/02 07:13:10;;;;;;;4.60;4.10;;;6.20;99.90;;;;;;5030708;28;20201;-88
2021/04/02 07:15:38;;;;;;;4.47;4.07;;;6.20;99.90;;;;;;5034147;28;20301;-86
2021/04/02 07:18:06;;;;;;;4.30;4.00;;;6.30;99.90;;;;;;5046454;28;20207;-82
2021/04/02 07:20:32;;;;;;;4.27;3.87;;;6.50;99.90;;;;;;5036607;28;20729;-80
2021/04/02 07:23:00;;;;;;;5.67;4.90;;;6.60;99.90;;;;;;5039242;28;20204;-83
2021/04/02 07:25:28;;;;;;;4.50;4.10;;;6.60;99.90;;;;;;5040073;28;20207;-85
2021/04/02 07:27:57;;;;;;;4.60;4.30;;;6.70;99.90;;;;;;5047815;28;20257;-87
2021/04/02 07:30:25;;;;;;;4.00;3.60;;;6.60;99.90;;;;;;5030189;28;20228;-85
2021/04/02 07:32:53;;;;;;;4.30;3.90;;;6.50;99.90;;;;;;5046763;28;20265;-89
2021/04/02 07:35:20;;;;;;;4.00;3.70;;;6.50;99.90;;;;;;5045696;28;20271;-84
2021/04/02 07:37:50;;;;;;;4.57;4.27;;;6.40;99.90;;;;;;5035028;28;20212;-84
2021/04/02 07:40:17;;;;;;;4.00;3.70;;;6.40;99.90;;;;;;5042781;28;20224;-84
2021/04/02 07:42:50;;;;;;;4.80;4.40;;;6.50;99.90;;;;;;5031349;28;20212;-83
2021/04/02 07:45:21;;;;;;;4.30;3.90;;;6.50;99.90;;;;;;5036635;28;20563;-84
2021/04/02 07:47:55;;;;;;;5.00;4.60;;;6.50;99.90;;;;;;5024548;28;20196;-84
2021/04/02 07:50:39;;;;;;;4.67;4.33;;;6.60;99.90;;;;;;5024805;28;20220;-84
2021/04/02 07:53:05;;;;;;;4.40;4.10;;;6.60;99.90;;;;;;5024443;28;20201;-83
2021/04/02 07:55:31;;;;;;;3.70;3.50;;;6.70;99.90;;;;;;5025576;28;20220;-85
2021/04/02 07:58:00;;;;;;;4.97;4.00;;;6.80;99.90;;;;;;5025778;28;20205;-84
2021/04/02 08:00:28;;;;;;;4.53;4.23;;;6.80;99.90;;;;;;5025930;28;20202;-83
2021/04/02 08:03:13;;;;;;;4.97;4.47;;;6.40;99.90;;;;;;5023321;28;20741;-84
2021/04/02 08:05:44;;;;;;;4.90;4.47;;;6.30;99.90;;;;;;5024581;28;20212;-80
2021/04/02 08:08:16;;;;;;;4.93;4.53;;;6.20;99.90;;;;;;5026046;28;20224;-81
2021/04/02 08:11:00;;;;;;;4.57;4.10;;;6.40;99.90;;;;;;5041238;28;20197;-82
2021/04/02 08:13:28;;;;;;;4.80;4.40;;;6.20;99.90;;;;;;5042377;28;20714;-85
2021/04/02 08:15:57;;;;;;;4.27;3.97;;;6.10;99.90;;;;;;5041950;28;20240;-83
2021/04/02 08:18:25;;;;;;;4.00;3.80;;;6.40;99.90;;;;;;5041877;28;20633;-82
2021/04/02 08:20:54;;;;;;;4.50;4.10;;;6.40;99.90;;;;;;5031861;28;20240;-82
2021/04/02 08:23:22;;;;;;;3.90;3.70;;;6.60;99.90;;;;;;5042601;28;20239;-82
2021/04/02 08:25:56;;;;;;;3.93;3.67;;;6.70;99.90;;;;;;5045515;28;20710;-83
2021/04/02 08:28:26;;;;;;;3.90;3.70;;;6.90;99.90;;;;;;5044617;28;20192;-84
2021/04/02 08:30:54;;;;;;;4.10;3.80;;;7.00;99.90;;;;;;5045686;28;20208;-84
2021/04/02 08:33:20;;;;;;;4.97;4.57;;;7.10;99.90;;;;;;5033606;28;20209;-84
2021/04/02 08:35:46;;;;;;;4.00;3.70;;;6.70;99.90;;;;;;5036282;28;20229;-83
2021/04/02 08:38:12;;;;;;;4.60;4.20;;;6.90;99.90;;;;;;5039262;28;20215;-84
2021/04/02 08:40:39;;;;;;;4.30;4.00;;;7.10;99.90;;;;;;5045126;28;20682;-83
2021/04/02 08:43:07;;;;;;;4.03;3.73;;;7.20;99.90;;;;;;5042396;28;20228;-85
2021/04/02 08:45:36;;;;;;;4.50;4.10;;;7.30;99.90;;;;;;5045457;28;20231;-84
2021/04/02 08:48:02;;;;;;;4.20;3.90;;;7.00;99.90;;;;;;5045135;28;20251;-84
2021/04/02 08:50:29;;;;;;;4.63;3.93;;;7.10;99.90;;;;;;5045360;28;20211;-85
2021/04/02 08:53:05;;;;;;;4.37;4.03;;;7.30;99.90;;;;;;5030388;28;20205;-85
2021/04/02 08:55:32;;;;;;;4.30;4.00;;;7.40;99.90;;;;;;5025167;28;20770;-85
2021/04/02 08:57:58;;;;;;;4.03;3.67;;;7.50;99.90;;;;;;5039262;28;20253;-82
2021/04/02 09:00:25;;;;;;;4.97;4.57;;;7.40;99.90;;;;;;5044392;27;20200;-82
2021/04/02 09:02:53;;;;;;;4.70;4.37;;;7.50;99.90;;;;;;5044547;28;20243;-83
2021/04/02 09:05:19;;;;;;;4.67;4.20;;;7.60;99.90;;;;;;5044519;28;20212;-84
2021/04/02 09:07:45;;;;;;;4.30;4.00;;;7.30;99.90;;;;;;5044491;28;20605;-83
2021/04/02 09:10:14;;;;;;;3.80;3.50;;;7.00;99.90;;;;;;5044924;28;20219;-84
2021/04/02 09:12:45;;;;;;;4.07;3.77;;;6.70;99.90;;;;;;5044658;28;20562;-84
2021/04/02 09:15:17;;;;;;;3.60;3.40;;;6.90;99.90;;;;;;5044194;28;20240;-74
2021/04/02 09:17:43;;;;;;;4.30;3.77;;;7.30;99.90;;;;;;5043060;28;20200;-75
2021/04/02 09:20:12;;;;;;;4.07;3.77;;;7.40;99.90;;;;;;5043514;28;20240;-84
2021/04/02 09:22:38;;;;;;;3.97;3.67;;;7.40;99.90;;;;;;5044871;28;20219;-84
2021/04/02 09:25:05;;;;;;;3.90;3.70;;;7.30;99.90;;;;;;5044916;28;20238;-85
2021/04/02 09:27:38;;;;;;;3.77;3.47;;;7.20;99.90;;;;;;5045276;28;20209;-86
2021/04/02 09:30:06;;;;;;;4.10;3.80;;;7.30;99.90;;;;;;5045201;28;20639;-85
2021/04/02 09:32:33;;;;;;;3.80;3.50;;;7.50;99.90;;;;;;5045160;27;20212;-85
2021/04/02 09:35:00;;;;;;;3.90;3.60;;;7.60;99.90;;;;;;5045002;28;20862;-86
2021/04/02 09:37:28;;;;;;;3.97;3.77;;;7.70;99.90;;;;;;5045347;28;20212;-85
2021/04/02 09:39:58;;;;;;;3.97;3.67;;;7.70;99.90;;;;;;5044789;28;20228;-85
2021/04/02 09:42:24;;;;;;;4.00;3.77;;;7.80;99.90;;;;;;5044933;28;20212;-85
2021/04/02 09:44:50;;;;;;;3.83;3.63;;;8.10;99.90;;;;;;5045530;28;20603;-85
2021/04/02 09:47:16;;;;;;;3.80;3.50;;;8.60;99.90;;;;;;5044688;28;20218;-84
2021/04/02 09:49:44;;;;;;;3.87;3.57;;;8.80;99.90;;;;;;5044009;28;20211;-84
2021/04/02 09:52:10;;;;;;;4.07;3.23;;;9.20;99.90;;;;;;5043800;28;20204;-84
2021/04/02 09:54:38;;;;;;;3.67;3.37;;;9.40;99.90;;;;;;5043904;28;20200;-84
2021/04/02 09:57:06;;;;;;;3.20;3.00;;;9.20;99.90;;;;;;5037020;28;20250;-84
2021/04/02 09:59:33;;;;;;;3.27;3.07;;;9.20;99.90;;;;;;5024350;28;20214;-83
2021/04/02 10:02:00;;;;;;;3.63;3.43;;;9.00;99.90;;;;;;5024145;28;20696;-84
2021/04/02 10:04:26;;;;;;;3.07;2.50;;;9.30;99.90;;;;;;5023827;28;20661;-84
2021/04/02 10:06:53;;;;;;;3.00;2.80;;;8.90;99.90;;;;;;5024058;28;20664;-86
2021/04/02 10:09:19;;;;;;;2.63;2.43;;;9.00;99.90;;;;;;5024765;28;20546;-85
2021/04/02 10:11:49;;;;;;;2.90;2.70;;;9.00;99.90;;;;;;5024269;28;20602;-85
2021/04/02 10:14:16;;;;;;;2.50;2.40;;;9.10;99.90;;;;;;5024289;28;20244;-85
2021/04/02 10:16:45;;;;;;;2.70;2.60;;;9.20;99.90;;;;;;5024128;28;20236;-85
2021/04/02 10:19:11;;;;;;;2.60;2.40;;;9.30;99.90;;;;;;5024344;28;20261;-84
2021/04/02 10:21:38;;;;;;;4.30;2.20;;;9.60;99.90;;;;;;5024804;28;20236;-84
2021/04/02 10:24:06;;;;;;;2.30;2.10;;;9.90;99.90;;;;;;5023931;28;20296;-84
2021/04/02 10:26:32;;;;;;;1.97;1.83;;;10.10;99.90;;;;;;5024293;28;20292;-87
2021/04/02 10:28:59;;;;;;;3.60;1.87;;;10.30;99.90;;;;;;5024288;28;20671;-87
2021/04/02 10:31:25;;;;;;;2.40;2.30;;;10.40;99.90;;;;;;5023807;28;20211;-85
2021/04/02 10:33:52;;;;;;;2.30;2.20;;;10.60;99.90;;;;;;5023360;28;20247;-85
2021/04/02 10:36:18;;;;;;;2.50;2.30;;;10.70;99.90;;;;;;5023730;28;20232;-84
2021/04/02 10:38:45;;;;;;;2.27;2.17;;;10.70;99.90;;;;;;5023229;28;20233;-84
2021/04/02 10:41:11;;;;;;;4.53;2.90;;;10.70;99.90;;;;;;5023639;28;20301;-85
2021/04/02 10:43:37;;;;;;;2.63;2.50;;;10.80;99.90;;;;;;5023742;28;20219;-85
2021/04/02 10:46:04;;;;;;;2.43;2.30;;;10.70;99.90;;;;;;5024064;28;20227;-86
2021/04/02 10:48:30;;;;;;;2.40;2.30;;;10.70;99.90;;;;;;5040462;28;20236;-86
2021/04/02 10:50:57;;;;;;;2.33;2.20;;;10.50;99.90;;;;;;5031775;28;20204;-85
2021/04/02 10:53:25;;;;;;;2.47;2.27;;;10.70;99.90;;;;;;5023371;28;20285;-82
2021/04/02 10:55:52;;;;;;;2.70;2.50;;;10.80;99.90;;;;;;5023214;28;20232;-85
2021/04/02 10:58:18;;;;;;;2.63;2.30;;;11.00;99.90;;;;;;5040473;28;20204;-87
2021/04/02 11:00:45;;;;;;;2.20;2.10;;;11.00;99.90;;;;;;5042325;28;20261;-85
2021/04/02 11:03:12;;;;;;;4.00;2.30;;;11.10;99.90;;;;;;5042721;28;20573;-83
2021/04/02 11:05:38;;;;;;;2.50;2.23;;;11.10;99.90;;;;;;5038017;28;20299;-83
2021/04/02 11:08:06;;;;;;;2.00;1.90;;;11.20;99.90;;;;;;5027230;28;20213;-83
2021/04/02 11:10:32;;;;;;;1.93;1.83;;;11.40;99.90;;;;;;5027415;28;20208;-84
2021/04/02 11:12:58;;;;;;;1.90;1.80;;;11.20;99.40;;;;;;5027295;28;20212;-82
2021/04/02 11:15:24;;;;;;;2.07;1.57;;;11.30;99.90;;;;;;5027455;28;20240;-85
2021/04/02 11:17:52;;;;;;;1.97;1.87;;;11.50;98.90;;;;;;5027036;28;20270;-84
2021/04/02 11:20:21;;;;;;;3.00;1.60;;;11.30;98.00;;;;;;5027040;28;20205;-84
2021/04/02 11:22:48;;;;;;;1.70;1.60;;;11.30;98.50;;;;;;5027267;28;20212;-84
2021/04/02 11:25:15;;;;;;;1.83;1.53;;;11.40;97.60;;;;;;5027244;28;20273;-83
2021/04/02 11:27:43;;;;;;;1.60;1.50;;;11.60;98.50;;;;;;5027124;28;20212;-83
2021/04/02 11:30:11;;;;;;;1.60;1.50;;;12.00;98.10;;;;;;5027011;28;20201;-84
2021/04/02 11:32:37;;;;;;;1.47;1.37;;;12.30;96.90;;;;;;5027111;28;20201;-82
2021/04/02 11:35:04;;;;;;;1.63;1.30;;;12.50;96.10;;;;;;5026493;28;20251;-86
2021/04/02 11:37:31;;;;;;;1.90;1.40;;;12.80;96.30;;;;;;5038024;28;20230;-84
2021/04/02 11:39:57;;;;;;;1.57;1.10;;;12.80;94.60;;;;;;5043328;28;20224;-84
2021/04/02 11:42:23;;;;;;;2.10;1.03;;;12.60;94.20;;;;;;5044458;28;20212;-86
2021/04/02 11:44:50;;;;;;;1.20;1.10;;;12.90;95.20;;;;;;5042877;28;20670;-86
2021/04/02 11:47:16;;;;;;;1.10;1.10;;;13.00;94.10;;;;;;5041938;28;20211;-85
2021/04/02 11:49:42;;;;;;;1.20;1.10;;;13.00;93.50;;;;;;5077369;27;20205;-86
2021/04/02 11:52:08;;;;;;;1.20;1.10;;;12.80;93.20;;;;;;5072156;27;20568;-86
2021/04/02 11:54:35;;;;;;;2.10;1.03;;;12.50;93.40;;;;;;5042541;27;20220;-85
2021/04/02 11:57:03;;;;;;;1.17;1.17;;;12.50;94.30;;;;;;5043688;27;20228;-86
2021/04/02 11:59:29;;;;;;;0.90;0.90;;;12.60;93.40;;;;;;5045713;28;20219;-86
2021/04/02 12:01:55;;;;;;;1.83;1.20;;;12.80;94.10;;;;;;5045613;27;20685;-86
2021/04/02 12:04:21;;;;;;;1.40;1.30;;;12.90;93.70;;;;;;5045900;28;20208;-87
2021/04/02 12:06:47;;;;;;;1.43;1.33;;;13.20;93.80;;;;;;5045182;27;20204;-86
2021/04/02 12:09:14;;;;;;;1.17;1.17;;;13.40;92.70;;;;;;5045647;28;20362;-86
2021/04/02 12:11:41;;;;;;;1.40;1.00;;;13.20;92.80;;;;;;5045599;27;20216;-86
2021/04/02 12:14:08;;;;;;;1.23;1.17;;;13.40;92.50;;;;;;5060909;27;20296;-83
2021/04/02 12:16:35;;;;;;;1.43;1.10;;;13.60;92.50;;;;;;5087066;28;20272;-85
2021/04/02 12:19:02;;;;;;;1.30;1.20;;;13.80;92.10;;;;;;5087080;28;20206;-85
2021/04/02 12:21:29;;;;;;;1.50;1.40;;;13.70;91.80;;;;;;5088675;28;20213;-84
2021/04/02 12:23:55;;;;;;;1.03;1.03;;;13.20;91.50;;;;;;5085907;28;20206;-76
2021/04/02 12:26:21;;;;;;;1.00;0.97;;;13.10;92.40;;;;;;5087211;28;20219;-76
2021/04/02 12:28:48;;;;;;;2.17;0.83;;;13.00;92.70;;;;;;5081835;28;20244;-83
2021/04/02 12:31:14;;;;;;;0.70;0.70;;;13.20;92.00;;;;;;5075425;28;20266;-84
2021/04/02 12:33:40;;;;;;;0.80;0.80;;;13.00;91.10;;;;;;5077446;28;20198;-83
2021/04/02 12:36:08;;;;;;;0.90;0.80;;;13.20;91.10;;;;;;5080820;28;20223;-85
2021/04/02 12:38:35;;;;;;;1.40;0.87;;;13.40;91.40;;;;;;5079433;28;20226;-83
2021/04/02 12:41:01;;;;;;;0.80;0.80;;;13.70;91.30;;;;;;5088503;28;20207;-86
2021/04/02 12:43:27;;;;;;;3.30;1.10;;;13.90;90.70;;;;;;5088820;28;20214;-84
2021/04/02 12:45:54;;;;;;;1.10;1.00;;;13.80;90.00;;;;;;5088955;28;20218;-84
2021/04/02 12:48:21;;;;;;;3.00;0.70;;;13.70;90.20;;;;;;5088517;28;20211;-84
2021/04/02 12:50:48;;;;;;;1.03;0.70;;;13.80;90.60;;;;;;5089010;28;20206;-84
2021/04/02 12:53:14;;;;;;;0.70;0.70;;;13.80;90.40;;;;;;5088248;28;20211;-83
2021/04/02 12:55:41;;;;;;;0.80;0.70;;;13.40;90.00;;;;;;5088112;28;20615;-84
2021/04/02 12:58:07;;;;;;;0.60;0.60;;;13.00;90.10;;;;;;5072155;28;20231;-83